sensor_id;sensor_type;location;lat;lon;timestamp;pressure;altitude;pressure_sealevel;temperature;humidity
72438;BME280;60444;43.534;-5.674;2023-04-05T00:00:58;102287.97;;;12.12;100.00
72438;BME280;60444;43.534;-5.674;2023-04-05T00:03:24;102260.63;;;11.90;100.00
72438;BME280;60444;43.534;-5.674;2023-04-05T00:05:50;102299.25;;;11.98;100.00
72438;BME280;60444;43.534;-5.674;2023-04-05T00:08:18;102299.94;;;12.05;100.00
72438;BME280;60444;43.534;-5.674;2023-04-05T00:10:52;102298.59;;;11.90;100.00
72438;BME280;60444;43.534;-5.674;2023-04-05T00:13:18;102309.03;;;12.02;100.00
72438;BME280;60444;43.534;-5.674;2023-04-05T00:15:44;102287.63;;;11.93;100.00
72438;BME280;60444;43.534;-5.674;2023-04-05T00:18:10;102301.19;;;11.93;100.00
72438;BME280;60444;43.534;-5.674;2023-04-05T00:20:50;102280.56;;;11.89;100.00
72438;BME280;60444;43.534;-5.674;2023-04-05T00:23:15;102291.69;;;11.80;100.00
72438;BME280;60444;43.534;-5.674;2023-04-05T00:25:46;102289.72;;;11.85;100.00
72438;BME280;60444;43.534;-5.674;2023-04-05T00:28:11;102280.91;;;11.77;100.00
72438;BME280;60444;43.534;-5.674;2023-04-05T00:30:37;102291.69;;;11.80;100.00
72438;BME280;60444;43.534;-5.674;2023-04-05T00:33:03;102292.88;;;11.70;100.00
72438;BME280;60444;43.534;-5.674;2023-04-05T00:35:29;102294.41;;;11.80;100.00
72438;BME280;60444;43.534;-5.674;2023-04-05T00:37:55;102306.16;;;11.79;100.00
72438;BME280;60444;43.534;-5.674;2023-04-05T00:40:21;102297.97;;;11.81;100.00
72438;BME280;60444;43.534;-5.674;2023-04-05T00:42:47;102288.91;;;11.82;100.00
72438;BME280;60444;43.534;-5.674;2023-04-05T00:45:13;102281.19;;;11.68;100.00
72438;BME280;60444;43.534;-5.674;2023-04-05T00:47:40;102275.75;;;11.70;100.00
72438;BME280;60444;43.534;-5.674;2023-04-05T00:50:07;102286.94;;;11.56;100.00
72438;BME280;60444;43.534;-5.674;2023-04-05T00:52:34;102291.84;;;11.74;100.00
72438;BME280;60444;43.534;-5.674;2023-04-05T00:55:05;102298.88;;;11.81;100.00
72438;BME280;60444;43.534;-5.674;2023-04-05T00:57:31;102295.13;;;11.85;100.00
72438;BME280;60444;43.534;-5.674;2023-04-05T01:00:00;102298.81;;;11.83;100.00
72438;BME280;60444;43.534;-5.674;2023-04-05T01:02:33;102291.97;;;11.71;100.00
72438;BME280;60444;43.534;-5.674;2023-04-05T01:05:18;102289.25;;;11.71;100.00
72438;BME280;60444;43.534;-5.674;2023-04-05T01:10:58;102298.34;;;11.69;100.00
72438;BME280;60444;43.534;-5.674;2023-04-05T01:13:24;102283.31;;;11.57;100.00
72438;BME280;60444;43.534;-5.674;2023-04-05T01:15:50;102297.44;;;11.68;100.00
72438;BME280;60444;43.534;-5.674;2023-04-05T01:18:16;102293.81;;;11.69;100.00
72438;BME280;60444;43.534;-5.674;2023-04-05T01:23:58;102276.09;;;11.56;100.00
72438;BME280;60444;43.534;-5.674;2023-04-05T01:29:41;102288.66;;;11.60;100.00
72438;BME280;60444;43.534;-5.674;2023-04-05T01:35:20;102265.53;;;11.47;100.00
72438;BME280;60444;43.534;-5.674;2023-04-05T01:37:48;102285.25;;;11.52;100.00
72438;BME280;60444;43.534;-5.674;2023-04-05T01:40:18;102283.28;;;11.59;100.00
72438;BME280;60444;43.534;-5.674;2023-04-05T01:42:44;102270.69;;;11.56;100.00
72438;BME280;60444;43.534;-5.674;2023-04-05T01:45:12;102249.28;;;11.47;100.00
72438;BME280;60444;43.534;-5.674;2023-04-05T01:47:37;102271.38;;;11.63;100.00
72438;BME280;60444;43.534;-5.674;2023-04-05T01:50:03;102228.56;;;11.44;100.00
72438;BME280;60444;43.534;-5.674;2023-04-05T01:52:29;102257.03;;;11.59;100.00
72438;BME280;60444;43.534;-5.674;2023-04-05T01:54:54;102233.03;;;11.47;100.00
72438;BME280;60444;43.534;-5.674;2023-04-05T01:57:20;102232.19;;;11.45;100.00
72438;BME280;60444;43.534;-5.674;2023-04-05T01:59:45;102242.53;;;11.31;100.00
72438;BME280;60444;43.534;-5.674;2023-04-05T02:02:11;102235.59;;;11.22;100.00
72438;BME280;60444;43.534;-5.674;2023-04-05T02:04:36;102230.88;;;11.29;100.00
72438;BME280;60444;43.534;-5.674;2023-04-05T02:07:02;102220.88;;;11.31;100.00
72438;BME280;60444;43.534;-5.674;2023-04-05T02:09:27;102211.91;;;11.29;100.00
72438;BME280;60444;43.534;-5.674;2023-04-05T02:11:53;102223.47;;;11.34;100.00
72438;BME280;60444;43.534;-5.674;2023-04-05T02:14:18;102231.44;;;11.40;100.00
72438;BME280;60444;43.534;-5.674;2023-04-05T02:16:44;102217.22;;;11.32;100.00
72438;BME280;60444;43.534;-5.674;2023-04-05T02:19:09;102208.19;;;11.33;100.00
72438;BME280;60444;43.534;-5.674;2023-04-05T02:21:35;102235.00;;;11.42;100.00
72438;BME280;60444;43.534;-5.674;2023-04-05T02:24:01;102207.44;;;11.28;100.00
72438;BME280;60444;43.534;-5.674;2023-04-05T02:26:26;102216.41;;;11.30;100.00
72438;BME280;60444;43.534;-5.674;2023-04-05T02:28:51;102221.72;;;11.33;100.00
72438;BME280;60444;43.534;-5.674;2023-04-05T02:31:17;102228.84;;;11.37;100.00
72438;BME280;60444;43.534;-5.674;2023-04-05T02:33:42;102236.13;;;11.35;100.00
72438;BME280;60444;43.534;-5.674;2023-04-05T02:36:11;102219.00;;;11.33;100.00
72438;BME280;60444;43.534;-5.674;2023-04-05T02:38:39;102206.59;;;11.26;100.00
72438;BME280;60444;43.534;-5.674;2023-04-05T02:41:09;102209.25;;;11.27;100.00
72438;BME280;60444;43.534;-5.674;2023-04-05T02:43:36;102218.13;;;11.32;100.00
72438;BME280;60444;43.534;-5.674;2023-04-05T02:46:01;102196.81;;;11.20;100.00
72438;BME280;60444;43.534;-5.674;2023-04-05T02:48:27;102203.94;;;11.23;100.00
72438;BME280;60444;43.534;-5.674;2023-04-05T02:50:52;102192.25;;;11.22;100.00
72438;BME280;60444;43.534;-5.674;2023-04-05T02:53:19;102214.50;;;11.32;100.00
72438;BME280;60444;43.534;-5.674;2023-04-05T02:55:55;102210.00;;;11.32;100.00
72438;BME280;60444;43.534;-5.674;2023-04-05T02:58:21;102214.44;;;11.35;100.00
72438;BME280;60444;43.534;-5.674;2023-04-05T03:00:47;102193.09;;;11.23;100.00
72438;BME280;60444;43.534;-5.674;2023-04-05T03:03:18;102213.59;;;11.33;100.00
72438;BME280;60444;43.534;-5.674;2023-04-05T03:05:44;102193.16;;;11.21;100.00
72438;BME280;60444;43.534;-5.674;2023-04-05T03:08:11;102205.47;;;11.33;100.00
72438;BME280;60444;43.534;-5.674;2023-04-05T03:10:44;102185.63;;;11.02;100.00
72438;BME280;60444;43.534;-5.674;2023-04-05T03:13:10;102210.31;;;11.22;100.00
72438;BME280;60444;43.534;-5.674;2023-04-05T03:15:36;102187.75;;;11.21;100.00
72438;BME280;60444;43.534;-5.674;2023-04-05T03:18:01;102202.13;;;11.23;100.00
72438;BME280;60444;43.534;-5.674;2023-04-05T03:20:27;102192.28;;;11.21;100.00
72438;BME280;60444;43.534;-5.674;2023-04-05T03:22:52;102195.81;;;11.23;100.00
72438;BME280;60444;43.534;-5.674;2023-04-05T03:25:18;102165.50;;;11.12;100.00
72438;BME280;60444;43.534;-5.674;2023-04-05T03:27:46;102195.81;;;11.23;100.00
72438;BME280;60444;43.534;-5.674;2023-04-05T03:30:12;102181.72;;;11.12;100.00
72438;BME280;60444;43.534;-5.674;2023-04-05T03:32:38;102185.31;;;11.12;100.00
72438;BME280;60444;43.534;-5.674;2023-04-05T03:35:03;102192.41;;;11.16;100.00
72438;BME280;60444;43.534;-5.674;2023-04-05T03:37:29;102201.34;;;11.20;100.00
72438;BME280;60444;43.534;-5.674;2023-04-05T03:39:55;102195.06;;;11.18;100.00
72438;BME280;60444;43.534;-5.674;2023-04-05T03:42:20;102191.56;;;11.14;100.00
72438;BME280;60444;43.534;-5.674;2023-04-05T03:44:50;102200.63;;;11.13;100.00
72438;BME280;60444;43.534;-5.674;2023-04-05T03:47:16;102181.06;;;11.04;100.00
72438;BME280;60444;43.534;-5.674;2023-04-05T03:49:42;102167.63;;;11.01;100.00
72438;BME280;60444;43.534;-5.674;2023-04-05T03:52:07;102189.94;;;11.09;100.00
72438;BME280;60444;43.534;-5.674;2023-04-05T03:54:33;102198.06;;;11.09;100.00
72438;BME280;60444;43.534;-5.674;2023-04-05T03:56:59;102190.94;;;11.05;100.00
72438;BME280;60444;43.534;-5.674;2023-04-05T03:59:25;102167.03;;;10.90;100.00
72438;BME280;60444;43.534;-5.674;2023-04-05T04:01:50;102169.59;;;10.94;100.00
72438;BME280;60444;43.534;-5.674;2023-04-05T04:04:17;102194.66;;;11.02;100.00
72438;BME280;60444;43.534;-5.674;2023-04-05T04:06:43;102180.47;;;10.93;100.00
72438;BME280;60444;43.534;-5.674;2023-04-05T04:09:08;102169.69;;;10.91;100.00
72438;BME280;60444;43.534;-5.674;2023-04-05T04:11:34;102192.91;;;11.00;100.00
72438;BME280;60444;43.534;-5.674;2023-04-05T04:13:59;102189.44;;;10.95;100.00
72438;BME280;60444;43.534;-5.674;2023-04-05T04:16:25;102193.91;;;10.97;100.00
72438;BME280;60444;43.534;-5.674;2023-04-05T04:18:50;102193.00;;;10.97;100.00
72438;BME280;60444;43.534;-5.674;2023-04-05T04:21:18;102180.47;;;10.93;100.00
72438;BME280;60444;43.534;-5.674;2023-04-05T04:23:45;102181.31;;;10.95;100.00
72438;BME280;60444;43.534;-5.674;2023-04-05T04:26:11;102175.00;;;10.94;100.00
72438;BME280;60444;43.534;-5.674;2023-04-05T04:28:37;102164.41;;;10.87;100.00
72438;BME280;60444;43.534;-5.674;2023-04-05T04:31:04;102167.00;;;10.91;100.00
72438;BME280;60444;43.534;-5.674;2023-04-05T04:33:30;102180.31;;;10.99;100.00
72438;BME280;60444;43.534;-5.674;2023-04-05T04:35:55;102184.72;;;11.03;100.00
72438;BME280;60444;43.534;-5.674;2023-04-05T04:38:21;102178.50;;;10.98;100.00
72438;BME280;60444;43.534;-5.674;2023-04-05T04:40:50;102184.66;;;11.04;100.00
72438;BME280;60444;43.534;-5.674;2023-04-05T04:43:18;102182.06;;;11.00;100.00
72438;BME280;60444;43.534;-5.674;2023-04-05T04:45:48;102185.72;;;10.99;100.00
72438;BME280;60444;43.534;-5.674;2023-04-05T04:48:14;102166.09;;;10.91;100.00
72438;BME280;60444;43.534;-5.674;2023-04-05T04:50:41;102170.63;;;10.90;100.00
72438;BME280;60444;43.534;-5.674;2023-04-05T04:53:08;102191.13;;;10.99;100.00
72438;BME280;60444;43.534;-5.674;2023-04-05T04:55:34;102174.16;;;10.94;100.00
72438;BME280;60444;43.534;-5.674;2023-04-05T04:58:00;102190.34;;;10.95;100.00
72438;BME280;60444;43.534;-5.674;2023-04-05T05:00:33;102175.22;;;10.87;100.00
72438;BME280;60444;43.534;-5.674;2023-04-05T05:02:58;102183.34;;;10.87;100.00
72438;BME280;60444;43.534;-5.674;2023-04-05T05:05:24;102179.19;;;10.75;100.00
72438;BME280;60444;43.534;-5.674;2023-04-05T05:07:51;102187.09;;;10.83;100.00
72438;BME280;60444;43.534;-5.674;2023-04-05T05:10:18;102190.66;;;10.83;100.00
72438;BME280;60444;43.534;-5.674;2023-04-05T05:12:43;102199.53;;;10.90;100.00
72438;BME280;60444;43.534;-5.674;2023-04-05T05:15:10;102200.56;;;10.84;100.00
72438;BME280;60444;43.534;-5.674;2023-04-05T05:17:36;102204.88;;;10.91;100.00
72438;BME280;60444;43.534;-5.674;2023-04-05T05:20:02;102205.78;;;10.92;100.00
72438;BME280;60444;43.534;-5.674;2023-04-05T05:22:34;102184.50;;;10.78;100.00
72438;BME280;60444;43.534;-5.674;2023-04-05T05:25:01;102203.94;;;10.94;100.00
72438;BME280;60444;43.534;-5.674;2023-04-05T05:27:26;102202.97;;;10.95;100.00
72438;BME280;60444;43.534;-5.674;2023-04-05T05:29:52;102191.31;;;10.93;100.00
72438;BME280;60444;43.534;-5.674;2023-04-05T05:32:18;102192.16;;;10.95;100.00
72438;BME280;60444;43.534;-5.674;2023-04-05T05:34:44;102193.00;;;10.97;100.00
72438;BME280;60444;43.534;-5.674;2023-04-05T05:37:12;102198.41;;;10.97;100.00
72438;BME280;60444;43.534;-5.674;2023-04-05T05:39:38;102171.56;;;10.89;100.00
72438;BME280;60444;43.534;-5.674;2023-04-05T05:42:04;102168.06;;;10.86;100.00
72438;BME280;60444;43.534;-5.674;2023-04-05T05:44:29;102188.50;;;10.96;100.00
72438;BME280;60444;43.534;-5.674;2023-04-05T05:46:56;102188.50;;;10.96;100.00
72438;BME280;60444;43.534;-5.674;2023-04-05T05:49:22;102171.66;;;10.86;100.00
72438;BME280;60444;43.534;-5.674;2023-04-05T05:51:48;102192.09;;;10.96;100.00
72438;BME280;60444;43.534;-5.674;2023-04-05T05:54:14;102164.66;;;10.79;100.00
72438;BME280;60444;43.534;-5.674;2023-04-05T05:56:39;102171.59;;;10.88;100.00
72438;BME280;60444;43.534;-5.674;2023-04-05T05:59:05;102180.47;;;10.93;100.00
72438;BME280;60444;43.534;-5.674;2023-04-05T06:01:31;102183.28;;;10.90;100.00
72438;BME280;60444;43.534;-5.674;2023-04-05T06:03:59;102180.72;;;10.84;100.00
72438;BME280;60444;43.534;-5.674;2023-04-05T06:06:24;102195.91;;;10.89;100.00
72438;BME280;60444;43.534;-5.674;2023-04-05T06:08:51;102192.28;;;10.90;100.00
72438;BME280;60444;43.534;-5.674;2023-04-05T06:11:18;102178.16;;;10.79;100.00
72438;BME280;60444;43.534;-5.674;2023-04-05T06:13:44;102171.81;;;10.80;100.00
72438;BME280;60444;43.534;-5.674;2023-04-05T06:16:09;102180.94;;;10.78;100.00
72438;BME280;60444;43.534;-5.674;2023-04-05T06:18:35;102189.84;;;10.81;100.00
72438;BME280;60444;43.534;-5.674;2023-04-05T06:21:00;102182.78;;;10.76;100.00
72438;BME280;60444;43.534;-5.674;2023-04-05T06:23:26;102179.13;;;10.77;100.00
72438;BME280;60444;43.534;-5.674;2023-04-05T06:25:51;102187.25;;;10.77;100.00
72438;BME280;60444;43.534;-5.674;2023-04-05T06:28:17;102191.75;;;10.76;100.00
72438;BME280;60444;43.534;-5.674;2023-04-05T06:30:44;102182.00;;;10.71;100.00
72438;BME280;60444;43.534;-5.674;2023-04-05T06:33:09;102202.47;;;10.81;100.00
72438;BME280;60444;43.534;-5.674;2023-04-05T06:35:35;102211.66;;;10.75;100.00
72438;BME280;60444;43.534;-5.674;2023-04-05T06:38:00;102196.59;;;10.65;100.00
72438;BME280;60444;43.534;-5.674;2023-04-05T06:40:25;102171.66;;;10.54;100.00
72438;BME280;60444;43.534;-5.674;2023-04-05T06:42:51;102175.19;;;10.56;100.00
72438;BME280;60444;43.534;-5.674;2023-04-05T06:45:16;102202.63;;;10.75;100.00
72438;BME280;60444;43.534;-5.674;2023-04-05T06:47:44;102202.84;;;10.67;100.00
72438;BME280;60444;43.534;-5.674;2023-04-05T06:50:09;102202.13;;;10.61;100.00
72438;BME280;60444;43.534;-5.674;2023-04-05T06:52:35;102189.59;;;10.57;100.00
72438;BME280;60444;43.534;-5.674;2023-04-05T06:55:01;102198.63;;;10.57;100.00
72438;BME280;60444;43.534;-5.674;2023-04-05T06:57:26;102216.41;;;10.66;100.00
72438;BME280;60444;43.534;-5.674;2023-04-05T06:59:53;102216.38;;;10.69;100.00
72438;BME280;60444;43.534;-5.674;2023-04-05T07:02:19;102210.94;;;10.69;100.00
72438;BME280;60444;43.534;-5.674;2023-04-05T07:04:45;102223.34;;;10.77;100.00
72438;BME280;60444;43.534;-5.674;2023-04-05T07:07:14;102215.25;;;10.76;100.00
72438;BME280;60444;43.534;-5.674;2023-04-05T07:09:39;102201.03;;;10.68;100.00
72438;BME280;60444;43.534;-5.674;2023-04-05T07:12:07;102213.41;;;10.78;100.00
72438;BME280;60444;43.534;-5.674;2023-04-05T07:14:34;102207.09;;;10.77;100.00
72438;BME280;60444;43.534;-5.674;2023-04-05T07:17:00;102216.06;;;10.79;100.00
72438;BME280;60444;43.534;-5.674;2023-04-05T07:19:26;102213.16;;;10.85;100.00
72438;BME280;60444;43.534;-5.674;2023-04-05T07:21:52;102206.94;;;10.82;100.00
72438;BME280;60444;43.534;-5.674;2023-04-05T07:24:18;102213.00;;;10.91;100.00
72438;BME280;60444;43.534;-5.674;2023-04-05T07:26:43;102228.34;;;10.91;100.00
72438;BME280;60444;43.534;-5.674;2023-04-05T07:29:10;102209.34;;;10.94;100.00
72438;BME280;60444;43.534;-5.674;2023-04-05T07:31:37;102219.28;;;10.93;100.00
72438;BME280;60444;43.534;-5.674;2023-04-05T07:34:03;102196.13;;;10.82;100.00
72438;BME280;60444;43.534;-5.674;2023-04-05T07:36:29;102205.84;;;10.89;100.00
72438;BME280;60444;43.534;-5.674;2023-04-05T07:38:58;102223.47;;;11.03;100.00
72438;BME280;60444;43.534;-5.674;2023-04-05T07:41:26;102218.00;;;11.05;100.00
72438;BME280;60444;43.534;-5.674;2023-04-05T07:43:52;102203.81;;;10.97;100.00
72438;BME280;60444;43.534;-5.674;2023-04-05T07:46:19;102225.06;;;11.10;100.00
72438;BME280;60444;43.534;-5.674;2023-04-05T07:48:45;102228.59;;;11.14;100.00
72438;BME280;60444;43.534;-5.674;2023-04-05T07:51:12;102213.38;;;11.10;100.00
72438;BME280;60444;43.534;-5.674;2023-04-05T07:53:37;102218.69;;;11.13;100.00
72438;BME280;60444;43.534;-5.674;2023-04-05T07:56:08;102216.75;;;11.18;100.00
72438;BME280;60444;43.534;-5.674;2023-04-05T07:58:35;102221.16;;;11.22;100.00
72438;BME280;60444;43.534;-5.674;2023-04-05T08:01:01;102216.56;;;11.24;100.00
72438;BME280;60444;43.534;-5.674;2023-04-05T08:03:28;102219.97;;;11.30;100.00
72438;BME280;60444;43.534;-5.674;2023-04-05T08:05:54;102201.34;;;11.20;100.00
72438;BME280;60444;43.534;-5.674;2023-04-05T08:08:20;102206.59;;;11.26;100.00
72438;BME280;60444;43.534;-5.674;2023-04-05T08:10:45;102219.75;;;11.38;100.00
72438;BME280;60444;43.534;-5.674;2023-04-05T08:13:11;102224.44;;;11.33;100.00
72438;BME280;60444;43.534;-5.674;2023-04-05T08:15:36;102214.44;;;11.35;100.00
72438;BME280;60444;43.534;-5.674;2023-04-05T08:18:02;102202.59;;;11.37;100.00
72438;BME280;60444;43.534;-5.674;2023-04-05T08:20:27;102208.97;;;11.36;100.00
72438;BME280;60444;43.534;-5.674;2023-04-05T08:22:53;102230.22;;;11.50;100.00
72438;BME280;60444;43.534;-5.674;2023-04-05T08:25:18;102214.97;;;11.47;100.00
72438;BME280;60444;43.534;-5.674;2023-04-05T08:27:43;102233.53;;;11.60;100.00
72438;BME280;60444;43.534;-5.674;2023-04-05T08:30:09;102237.94;;;11.64;100.00
72438;BME280;60444;43.534;-5.674;2023-04-05T08:32:35;102218.91;;;11.67;100.00
72438;BME280;60444;43.534;-5.674;2023-04-05T08:35:01;102200.13;;;11.59;100.00
72438;BME280;60444;43.534;-5.674;2023-04-05T08:37:27;102206.31;;;11.64;100.00
72438;BME280;60444;43.534;-5.674;2023-04-05T08:39:52;102233.84;;;11.80;100.00
72438;BME280;60444;43.534;-5.674;2023-04-05T08:42:28;102214.22;;;11.72;100.00
72438;BME280;60444;43.534;-5.674;2023-04-05T08:44:57;102224.81;;;11.79;100.00
72438;BME280;60444;43.534;-5.674;2023-04-05T08:47:24;102212.22;;;11.78;100.00
72438;BME280;60444;43.534;-5.674;2023-04-05T08:49:49;102222.72;;;11.89;100.00
72438;BME280;60444;43.534;-5.674;2023-04-05T08:52:15;102227.97;;;11.93;100.00
72438;BME280;60444;43.534;-5.674;2023-04-05T08:54:41;102219.22;;;11.85;100.00
72438;BME280;60444;43.534;-5.674;2023-04-05T08:57:07;102229.56;;;11.73;100.00
72438;BME280;60444;43.534;-5.674;2023-04-05T08:59:36;102236.38;;;11.86;100.00
72438;BME280;60444;43.534;-5.674;2023-04-05T09:02:22;102231.47;;;11.98;100.00
72438;BME280;60444;43.534;-5.674;2023-04-05T09:04:49;102223.41;;;11.95;100.00
72438;BME280;60444;43.534;-5.674;2023-04-05T09:07:16;102233.03;;;12.05;100.00
72438;BME280;60444;43.534;-5.674;2023-04-05T09:09:45;102230.31;;;12.05;100.00
72438;BME280;60444;43.534;-5.674;2023-04-05T09:12:13;102236.34;;;12.15;100.00
72438;BME280;60444;43.534;-5.674;2023-04-05T09:14:40;102226.53;;;12.11;100.00
72438;BME280;60444;43.534;-5.674;2023-04-05T09:17:05;102227.97;;;11.93;100.00
72438;BME280;60444;43.534;-5.674;2023-04-05T09:19:31;102209.00;;;11.93;100.00
72438;BME280;60444;43.534;-5.674;2023-04-05T09:22:02;102229.53;;;12.02;100.00
72438;BME280;60444;43.534;-5.674;2023-04-05T09:24:33;102238.09;;;12.16;100.00
72438;BME280;60444;43.534;-5.674;2023-04-05T09:27:07;102228.16;;;12.16;100.00
72438;BME280;60444;43.534;-5.674;2023-04-05T09:29:34;102234.97;;;12.02;100.00
72438;BME280;60444;43.534;-5.674;2023-04-05T09:32:01;102236.28;;;12.16;100.00
72438;BME280;60444;43.534;-5.674;2023-04-05T09:34:40;102227.38;;;12.11;100.00
72438;BME280;60444;43.534;-5.674;2023-04-05T09:37:14;102237.22;;;12.15;100.00
72438;BME280;60444;43.534;-5.674;2023-04-05T09:39:41;102226.59;;;12.08;100.00
72438;BME280;60444;43.534;-5.674;2023-04-05T09:42:14;102216.84;;;12.02;100.00
72438;BME280;60444;43.534;-5.674;2023-04-05T09:45:00;102223.75;;;12.12;100.00
72438;BME280;60444;43.534;-5.674;2023-04-05T09:47:32;102238.88;;;12.19;100.00
72438;BME280;60444;43.534;-5.674;2023-04-05T09:50:02;102225.69;;;12.09;100.00
72438;BME280;60444;43.534;-5.674;2023-04-05T09:52:31;102218.69;;;12.02;100.00
72438;BME280;60444;43.534;-5.674;2023-04-05T09:55:02;102231.06;;;12.10;100.00
72438;BME280;60444;43.534;-5.674;2023-04-05T09:57:33;102220.38;;;12.06;100.00
72438;BME280;60444;43.534;-5.674;2023-04-05T09:59:58;102210.59;;;12.00;100.00
72438;BME280;60444;43.534;-5.674;2023-04-05T10:02:24;102211.41;;;12.02;100.00
72438;BME280;60444;43.534;-5.674;2023-04-05T10:05:04;102227.50;;;12.08;100.00
72438;BME280;60444;43.534;-5.674;2023-04-05T10:07:31;102223.09;;;12.06;100.00
72438;BME280;60444;43.534;-5.674;2023-04-05T10:09:57;102223.75;;;12.12;100.00
72438;BME280;60444;43.534;-5.674;2023-04-05T10:12:26;102217.50;;;12.10;100.00
72438;BME280;60444;43.534;-5.674;2023-04-05T10:14:56;102201.28;;;12.09;100.00
72438;BME280;60444;43.534;-5.674;2023-04-05T10:17:31;102205.69;;;12.11;100.00
72438;BME280;60444;43.534;-5.674;2023-04-05T10:22:38;102200.25;;;12.11;100.00
72438;BME280;60444;43.534;-5.674;2023-04-05T10:25:14;102194.94;;;12.08;100.00
72438;BME280;60444;43.534;-5.674;2023-04-05T10:27:47;102195.66;;;12.15;100.00
72438;BME280;60444;43.534;-5.674;2023-04-05T10:30:17;102187.47;;;12.16;100.00
72438;BME280;60444;43.534;-5.674;2023-04-05T10:32:57;102163.25;;;12.10;100.00
72438;BME280;60444;43.534;-5.674;2023-04-05T10:36:03;102187.75;;;12.33;100.00
72438;BME280;60444;43.534;-5.674;2023-04-05T10:41:20;102186.13;;;12.28;100.00
72438;BME280;60444;43.534;-5.674;2023-04-05T10:43:46;102157.44;;;12.21;100.00
72438;BME280;60444;43.534;-5.674;2023-04-05T10:46:18;102168.72;;;12.35;100.00
72438;BME280;60444;43.534;-5.674;2023-04-05T10:52:02;102148.47;;;12.19;100.00
72438;BME280;60444;43.534;-5.674;2023-04-05T10:54:30;102162.72;;;12.25;100.00
72438;BME280;60444;43.534;-5.674;2023-04-05T10:56:57;102151.97;;;12.22;100.00
72438;BME280;60444;43.534;-5.674;2023-04-05T10:59:24;102158.75;;;12.35;100.00
72438;BME280;60444;43.534;-5.674;2023-04-05T11:01:51;102172.84;;;12.46;100.00
72438;BME280;60444;43.534;-5.674;2023-04-05T11:04:17;102164.81;;;12.43;100.00
72438;BME280;60444;43.534;-5.674;2023-04-05T11:09:30;102168.19;;;12.50;100.00
72438;BME280;60444;43.534;-5.674;2023-04-05T11:11:58;102154.75;;;12.47;100.00
72438;BME280;60444;43.534;-5.674;2023-04-05T11:14:35;102161.81;;;12.51;100.00
72438;BME280;60444;43.534;-5.674;2023-04-05T11:17:01;102166.38;;;12.50;100.00
72438;BME280;60444;43.534;-5.674;2023-04-05T11:22:08;102149.84;;;12.57;100.00
72438;BME280;60444;43.534;-5.674;2023-04-05T11:29:54;102149.44;;;12.69;100.00
72438;BME280;60444;43.534;-5.674;2023-04-05T11:32:20;102119.72;;;12.64;100.00
72438;BME280;60444;43.534;-5.674;2023-04-05T11:35:05;102123.13;;;12.69;100.00
72438;BME280;60444;43.534;-5.674;2023-04-05T11:40:36;102142.63;;;12.80;100.00
72438;BME280;60444;43.534;-5.674;2023-04-05T11:43:09;102140.09;;;12.76;100.00
72438;BME280;60444;43.534;-5.674;2023-04-05T11:45:37;102137.97;;;12.84;100.00
72438;BME280;60444;43.534;-5.674;2023-04-05T11:48:08;102135.03;;;12.90;100.00
72438;BME280;60444;43.534;-5.674;2023-04-05T11:50:38;102133.28;;;12.89;100.00
72438;BME280;60444;43.534;-5.674;2023-04-05T11:53:13;102129.75;;;12.87;100.00
72438;BME280;60444;43.534;-5.674;2023-04-05T11:55:44;102138.59;;;12.92;100.00
72438;BME280;60444;43.534;-5.674;2023-04-05T11:58:14;102128.50;;;12.95;100.00
72438;BME280;60444;43.534;-5.674;2023-04-05T12:00:41;102106.22;;;12.86;100.00
72438;BME280;60444;43.534;-5.674;2023-04-05T12:03:15;102127.44;;;12.99;100.00
72438;BME280;60444;43.534;-5.674;2023-04-05T12:05:48;102127.50;;;12.98;100.00
72438;BME280;60444;43.534;-5.674;2023-04-05T12:08:15;102112.44;;;12.89;100.00
72438;BME280;60444;43.534;-5.674;2023-04-05T12:10:40;102130.22;;;12.98;100.00
72438;BME280;60444;43.534;-5.674;2023-04-05T12:13:06;102111.09;;;13.01;100.00
72438;BME280;60444;43.534;-5.674;2023-04-05T12:15:36;102110.38;;;12.96;100.00
72438;BME280;60444;43.534;-5.674;2023-04-05T12:18:02;102104.94;;;12.96;100.00
72438;BME280;60444;43.534;-5.674;2023-04-05T12:20:28;102103.16;;;12.95;100.00
72438;BME280;60444;43.534;-5.674;2023-04-05T12:22:55;102116.44;;;13.04;100.00
72438;BME280;60444;43.534;-5.674;2023-04-05T12:25:21;102112.00;;;13.00;100.00
72438;BME280;60444;43.534;-5.674;2023-04-05T12:27:47;102097.41;;;13.04;100.00
72438;BME280;60444;43.534;-5.674;2023-04-05T12:30:17;102089.94;;;13.10;100.00
72438;BME280;60444;43.534;-5.674;2023-04-05T12:32:52;102100.66;;;13.13;100.00
72438;BME280;60444;43.534;-5.674;2023-04-05T12:35:22;102083.75;;;13.05;100.00
72438;BME280;60444;43.534;-5.674;2023-04-05T12:37:51;102104.38;;;13.11;100.00
72438;BME280;60444;43.534;-5.674;2023-04-05T12:40:21;102112.50;;;13.12;100.00
72438;BME280;60444;43.534;-5.674;2023-04-05T12:42:47;102105.22;;;13.13;100.00
72438;BME280;60444;43.534;-5.674;2023-04-05T12:45:13;102113.13;;;13.19;100.00
72438;BME280;60444;43.534;-5.674;2023-04-05T12:47:55;102098.59;;;13.20;100.00
72438;BME280;60444;43.534;-5.674;2023-04-05T12:50:29;102098.56;;;13.21;100.00
72438;BME280;60444;43.534;-5.674;2023-04-05T12:53:00;102099.94;;;13.31;100.00
72438;BME280;60444;43.534;-5.674;2023-04-05T12:55:29;102102.44;;;13.37;100.00
72438;BME280;60444;43.534;-5.674;2023-04-05T12:57:58;102112.41;;;13.37;99.90
72438;BME280;60444;43.534;-5.674;2023-04-05T13:00:25;102106.84;;;13.40;100.00
72438;BME280;60444;43.534;-5.674;2023-04-05T13:02:53;102086.13;;;13.37;100.00
72438;BME280;60444;43.534;-5.674;2023-04-05T13:05:20;102094.06;;;13.42;100.00
72438;BME280;60444;43.534;-5.674;2023-04-05T13:07:46;102104.31;;;13.35;98.73